Airport ICAO


18:18 UTC

11°C

Broken clouds


An affordable passengers' Moving Map for your aircraft. Made for the iPad and the iPhone
More information here

LFPG Charles De Gaulle


Paris FRANCE   VFR


METAR LFPG 231800Z 05007KT 8000 BKN026 11/05 Q1029 NOSIG 0h18min

TAF LFPG 231700Z 2318/2424 02006KT 8000 BKN020 TX13/2414Z TN06/2404Z BECMG 2400/2402 3000 BR BKN003 PROB40 TEMPO 2402/2405 0600 BCFG BKN002 BECMG 2406/2408 6000 NSW BKN006 BECMG 2408/2410 BKN020 1h18min





NOTAMS

OPEN